Time;durP1;ratioP1;P1;durP2;ratioP2;P2;SDS_P1;SDS_P2;PMS_P1;PMS_P2;Temp;Humidity;BMP_temperature;BMP_pressure;BME280_temperature;BME280_humidity;BME280_pressure;Samples;Min_cycle;Max_cycle;Signal;HPM_P1;HPM_P2
2022/05/09 00:00:31;;;;;;;11.10;5.45;;;;;;;8.52;100.00;101429.86;1781641;80;21982;-84
2022/05/09 00:02:58;;;;;;;13.25;5.47;;;;;;;8.50;100.00;101422.61;1781427;80;20959;-84
2022/05/09 00:05:29;;;;;;;12.53;5.00;;;;;;;8.51;100.00;101424.73;1781973;80;21523;-84
2022/05/09 00:07:56;;;;;;;7.78;5.17;;;;;;;8.50;100.00;101418.72;1781643;80;21030;-85
2022/05/09 00:10:27;;;;;;;8.20;4.60;;;;;;;8.53;100.00;101417.23;1781817;80;21104;-84
2022/05/09 00:12:54;;;;;;;7.30;4.95;;;;;;;8.58;100.00;101414.86;1781625;80;22188;-85
2022/05/09 00:15:23;;;;;;;8.30;5.03;;;;;;;8.60;100.00;101416.45;1782065;80;21002;-84
2022/05/09 00:17:51;;;;;;;10.93;5.15;;;;;;;8.62;100.00;101412.02;1780820;80;21001;-83
2022/05/09 00:20:20;;;;;;;6.65;4.62;;;;;;;8.63;100.00;101414.14;1781446;80;21014;-83
2022/05/09 00:22:52;;;;;;;7.35;4.67;;;;;;;8.64;100.00;101407.59;1781484;80;21852;-84
2022/05/09 00:25:24;;;;;;;11.78;5.55;;;;;;;8.66;100.00;101402.30;1750470;80;51320;-85
2022/05/09 00:27:52;;;;;;;10.78;5.05;;;;;;;8.68;100.00;101405.19;1781876;80;21484;-84
2022/05/09 00:30:20;;;;;;;7.92;5.78;;;;;;;8.71;100.00;101401.59;1781766;80;21093;-84
2022/05/09 00:32:47;;;;;;;8.28;5.05;;;;;;;8.68;100.00;101403.07;1781888;80;21492;-84
2022/05/09 00:35:15;;;;;;;7.95;5.25;;;;;;;8.63;100.00;101402.02;1782062;80;21014;-87
2022/05/09 00:37:42;;;;;;;7.80;5.08;;;;;;;8.57;100.00;101404.10;1781511;80;21833;-85
2022/05/09 00:40:13;;;;;;;7.30;4.70;;;;;;;8.50;100.00;101397.95;1781352;80;21017;-86
2022/05/09 00:42:53;;;;;;;9.85;5.03;;;;;;;8.46;100.00;101399.46;1778813;80;21061;-86
2022/05/09 00:45:24;;;;;;;8.20;5.10;;;;;;;8.40;100.00;101398.02;1778731;80;21010;-86
2022/05/09 00:47:51;;;;;;;6.67;4.72;;;;;;;8.36;100.00;101396.05;1775295;80;21113;-86
2022/05/09 00:50:28;;;;;;;5.72;4.58;;;;;;;8.37;100.00;101401.62;1779018;80;21481;-85
2022/05/09 00:53:06;;;;;;;7.87;5.30;;;;;;;8.41;100.00;101397.11;1775002;80;21402;-85
2022/05/09 00:55:50;;;;;;;7.67;4.92;;;;;;;8.44;100.00;101394.80;1778325;80;21456;-86
2022/05/09 00:58:38;;;;;;;7.35;4.83;;;;;;;8.44;100.00;101393.06;1778817;80;21713;-86
2022/05/09 01:01:08;;;;;;;7.17;5.50;;;;;;;8.44;100.00;101393.06;1778778;80;21508;-86
2022/05/09 01:03:46;;;;;;;7.97;5.37;;;;;;;8.43;100.00;101389.23;1778978;80;21141;-85
2022/05/09 01:06:14;;;;;;;11.00;5.53;;;;;;;8.41;100.00;101386.73;1777958;80;21081;-83
2022/05/09 01:08:42;;;;;;;6.72;5.00;;;;;;;8.38;100.00;101382.98;1779138;80;21042;-85
2022/05/09 01:11:14;;;;;;;10.23;5.80;;;;;;;8.33;100.00;101383.70;1779116;80;21033;-84
2022/05/09 01:13:53;;;;;;;8.33;5.80;;;;;;;8.24;100.00;101380.30;1775542;80;21065;-84
2022/05/09 01:16:21;;;;;;;8.25;5.17;;;;;;;8.14;100.00;101378.19;1772250;80;21107;-84
2022/05/09 01:18:52;;;;;;;13.83;5.75;;;;;;;8.04;100.00;101377.84;1749378;80;21136;-85
2022/05/09 01:21:40;;;;;;;8.25;5.33;;;;;;;7.95;100.00;101378.78;1779185;80;20975;-84
2022/05/09 01:24:18;;;;;;;8.05;5.00;;;;;;;7.88;100.00;101379.11;1779050;80;21010;-85
2022/05/09 01:26:45;;;;;;;9.93;5.20;;;;;;;7.83;100.00;101381.08;1773382;80;21002;-85
2022/05/09 01:29:18;;;;;;;9.43;5.67;;;;;;;7.79;100.00;101373.53;1778988;80;21087;-86
2022/05/09 01:31:47;;;;;;;8.00;5.40;;;;;;;7.77;100.00;101377.98;1778806;80;21014;-84
2022/05/09 01:34:17;;;;;;;12.35;5.60;;;;;;;7.74;100.00;101367.28;1779104;80;21070;-84
2022/05/09 01:36:49;;;;;;;8.20;4.95;;;;;;;7.71;100.00;101370.05;1779141;80;21034;-85
2022/05/09 01:39:17;;;;;;;10.82;5.47;;;;;;;7.69;100.00;101368.81;1775036;80;21077;-84
2022/05/09 01:41:48;;;;;;;8.03;5.12;;;;;;;7.69;100.00;101367.98;1780659;80;21457;-85
2022/05/09 01:44:18;;;;;;;9.98;5.05;;;;;;;7.70;100.00;101359.30;1777374;80;21296;-85
2022/05/09 01:49:34;;;;;;;8.78;4.90;;;;;;;7.80;100.00;101355.33;1721069;82;21095;-85
2022/05/09 01:52:08;;;;;;;11.83;5.72;;;;;;;7.83;100.00;101362.92;1750766;82;21033;-85
2022/05/09 01:54:39;;;;;;;9.70;5.47;;;;;;;7.84;100.00;101356.00;1686734;82;21194;-85
2022/05/09 01:57:06;;;;;;;10.10;5.33;;;;;;;7.83;100.00;101360.34;1740537;82;21094;-84
2022/05/09 01:59:34;;;;;;;11.75;5.58;;;;;;;7.78;100.00;101361.04;1781685;80;21089;-83
2022/05/09 02:02:08;;;;;;;9.18;5.67;;;;;;;7.70;100.00;101360.59;1781754;80;21038;-85
2022/05/09 02:04:40;;;;;;;7.62;4.78;;;;;;;7.63;100.00;101359.23;1777738;80;21120;-85
2022/05/09 02:07:09;;;;;;;14.58;6.00;;;;;;;7.58;100.00;101358.99;1777186;80;21219;-86
2022/05/09 02:09:40;;;;;;;8.70;4.90;;;;;;;7.57;100.00;101366.39;1781992;80;21003;-84
2022/05/09 02:12:09;;;;;;;10.63;5.55;;;;;;;7.54;100.00;101367.86;1781679;80;21049;-84
2022/05/09 02:14:39;;;;;;;8.78;5.67;;;;;;;7.55;100.00;101357.88;1751682;80;21021;-85
2022/05/09 02:17:08;;;;;;;11.55;5.58;;;;;;;7.56;100.00;101359.55;1782315;80;21049;-86
2022/05/09 02:19:38;;;;;;;9.25;5.92;;;;;;;7.53;100.00;101358.40;1781826;80;27333;-86
2022/05/09 02:22:05;;;;;;;6.95;5.20;;;;;;;7.50;100.00;101357.72;1782267;80;21010;-86
2022/05/09 02:24:36;;;;;;;8.35;4.92;;;;;;;7.51;100.00;101357.62;1781959;80;21087;-86
2022/05/09 02:27:04;;;;;;;8.28;5.40;;;;;;;7.50;100.00;101354.66;1782185;80;21078;-86
2022/05/09 02:29:32;;;;;;;7.97;5.33;;;;;;;7.52;100.00;101354.59;1781632;80;22283;-84
2022/05/09 02:32:01;;;;;;;8.45;5.55;;;;;;;7.55;100.00;101359.17;1781787;80;21157;-85
2022/05/09 02:34:28;;;;;;;7.97;5.42;;;;;;;7.73;100.00;101353.97;1781642;80;21650;-85
2022/05/09 02:36:55;;;;;;;9.70;5.28;;;;;;;8.01;100.00;101357.70;1751226;80;21531;-85
2022/05/09 02:39:22;;;;;;;7.87;4.67;;;;;;;8.33;100.00;101352.09;1781832;80;21053;-85
2022/05/09 02:41:49;;;;;;;38.95;7.33;;;;;;;8.39;100.00;101349.63;1781812;80;21614;-86
2022/05/09 02:44:16;;;;;;;40.30;7.28;;;;;;;7.93;100.00;101351.64;1781645;80;21859;-87
2022/05/09 02:46:43;;;;;;;35.50;6.42;;;;;;;7.88;100.00;101351.02;1781936;80;21116;-87
2022/05/09 02:49:11;;;;;;;28.87;6.42;;;;;;;7.90;100.00;101352.61;1781621;80;21583;-87
2022/05/09 02:51:39;;;;;;;13.55;5.50;;;;;;;7.94;100.00;101351.99;1751527;80;21022;-85
2022/05/09 02:54:08;;;;;;;18.90;5.62;;;;;;;7.94;100.00;101355.88;1781828;80;21582;-85
2022/05/09 02:56:36;;;;;;;12.78;5.62;;;;;;;7.93;100.00;101349.48;1781317;80;22004;-86
2022/05/09 02:59:03;;;;;;;11.57;4.78;;;;;;;7.94;100.00;101351.17;1781947;80;21440;-85
2022/05/09 03:01:30;;;;;;;16.27;5.33;;;;;;;7.97;100.00;101347.95;1781525;80;21092;-89
2022/05/09 03:06:44;;;;;;;10.20;4.92;;;;;;;8.02;100.00;101349.84;1781524;80;21029;-86
2022/05/09 03:09:11;;;;;;;10.80;5.00;;;;;;;8.08;100.00;101344.79;1781760;80;21127;-84
2022/05/09 03:11:40;;;;;;;10.93;5.20;;;;;;;9.45;100.00;101347.23;1781422;80;21041;-84
2022/05/09 03:14:07;;;;;;;8.95;5.15;;;;;;;10.22;100.00;101341.73;1781642;80;21041;-89
2022/05/09 03:16:35;;;;;;;9.03;5.67;;;;;;;10.64;100.00;101339.19;1781821;80;21566;-86
2022/05/09 03:19:02;;;;;;;9.05;5.35;;;;;;;10.91;100.00;101341.78;1781677;80;21058;-89
2022/05/09 03:21:31;;;;;;;8.65;5.50;;;;;;;11.20;100.00;101337.72;1781985;80;22348;-88
2022/05/09 03:23:58;;;;;;;7.17;4.87;;;;;;;11.53;100.00;101336.39;1781824;80;21096;-88
2022/05/09 03:26:27;;;;;;;9.58;5.80;;;;;;;11.79;100.00;101338.52;1781594;80;21038;-90
2022/05/09 03:28:54;;;;;;;10.48;5.70;;;;;;;11.73;100.00;101343.34;1782030;80;21548;-86
2022/05/09 03:31:21;;;;;;;10.58;6.45;;;;;;;12.00;100.00;101348.47;1781742;80;21037;-87
2022/05/09 03:33:49;;;;;;;10.82;7.05;;;;;;;12.12;100.00;101349.38;1781810;80;21201;-87
2022/05/09 03:36:16;;;;;;;10.45;6.62;;;;;;;11.49;100.00;101353.20;1781783;80;21042;-89
2022/05/09 03:38:46;;;;;;;13.45;7.22;;;;;;;11.46;100.00;101358.13;1781630;80;21104;-88
2022/05/09 03:41:14;;;;;;;14.47;6.40;;;;;;;11.71;100.00;101358.27;1781891;80;21030;-86
2022/05/09 03:43:41;;;;;;;10.03;6.78;;;;;;;12.09;100.00;101355.66;1773587;80;21022;-86
2022/05/09 03:46:10;;;;;;;9.30;6.37;;;;;;;11.58;100.00;101358.25;1773456;80;21083;-87
2022/05/09 03:48:38;;;;;;;10.82;5.90;;;;;;;10.76;100.00;101350.10;1773810;80;21007;-87
2022/05/09 03:51:05;;;;;;;9.20;6.22;;;;;;;10.53;100.00;101341.17;1773473;80;21054;-85
2022/05/09 03:53:33;;;;;;;12.13;5.40;;;;;;;10.43;100.00;101338.77;1773553;80;21046;-85
2022/05/09 03:56:00;;;;;;;10.48;5.62;;;;;;;10.36;100.00;101328.72;1773505;80;21054;-86
2022/05/09 03:58:28;;;;;;;10.68;5.67;;;;;;;10.35;100.00;101324.89;1773804;80;21205;-86
2022/05/09 04:00:56;;;;;;;7.70;5.40;;;;;;;10.36;100.00;101326.11;1773433;80;21065;-86
2022/05/09 04:03:23;;;;;;;10.55;5.95;;;;;;;10.40;100.00;101329.39;1773693;80;21007;-86
2022/05/09 04:05:50;;;;;;;9.08;5.50;;;;;;;10.45;100.00;101326.50;1773326;80;21053;-85
2022/05/09 04:08:23;;;;;;;11.63;6.30;;;;;;;10.51;100.00;101324.80;1773596;80;21097;-85
2022/05/09 04:10:53;;;;;;;9.63;5.95;;;;;;;10.60;100.00;101327.27;1773177;80;21253;-86
2022/05/09 04:13:21;;;;;;;9.83;6.15;;;;;;;10.69;100.00;101329.30;1773319;80;21086;-86
2022/05/09 04:18:42;;;;;;;9.98;6.35;;;;;;;10.90;100.00;101336.20;1773254;80;21177;-86
2022/05/09 04:21:12;;;;;;;11.80;6.30;;;;;;;11.01;100.00;101332.44;1771567;80;21037;-86
2022/05/09 04:23:40;;;;;;;9.70;6.80;;;;;;;11.15;100.00;101334.11;1770607;80;21150;-86
2022/05/09 04:26:07;;;;;;;14.28;7.50;;;;;;;11.28;100.00;101327.61;1772803;80;21081;-86
2022/05/09 04:28:35;;;;;;;10.60;6.67;;;;;;;11.43;100.00;101323.59;1772705;80;21501;-85
2022/05/09 04:31:02;;;;;;;13.65;8.18;;;;;;;11.56;100.00;101323.16;1773049;80;21078;-86
2022/05/09 04:33:30;;;;;;;13.93;7.90;;;;;;;11.72;100.00;101325.53;1765439;80;21107;-87
2022/05/09 04:35:59;;;;;;;16.07;9.10;;;;;;;11.89;100.00;101319.62;1747215;80;21121;-86
2022/05/09 04:38:27;;;;;;;14.87;8.78;;;;;;;12.08;100.00;101319.20;1755689;80;21084;-87
2022/05/09 04:40:56;;;;;;;17.92;10.10;;;;;;;12.27;100.00;101318.27;1762323;80;21106;-88
2022/05/09 04:43:28;;;;;;;19.32;10.55;;;;;;;12.50;100.00;101318.39;1778479;80;21025;-88
2022/05/09 04:45:59;;;;;;;16.80;11.22;;;;;;;12.73;100.00;101318.50;1750632;80;21090;-88
2022/05/09 04:48:28;;;;;;;17.35;10.38;;;;;;;12.97;100.00;101318.94;1747110;80;21734;-88
2022/05/09 04:50:56;;;;;;;16.70;10.13;;;;;;;13.18;100.00;101320.44;1750409;80;21009;-87
2022/05/09 04:53:23;;;;;;;19.73;12.45;;;;;;;13.38;100.00;101317.63;1750494;80;21039;-87
2022/05/09 04:55:51;;;;;;;21.93;11.65;;;;;;;13.56;100.00;101321.95;1750489;80;21035;-88
2022/05/09 04:58:20;;;;;;;16.93;10.85;;;;;;;13.73;100.00;101316.26;1750910;80;21110;-89
2022/05/09 05:00:49;;;;;;;15.32;10.13;;;;;;;13.90;100.00;101318.53;1750380;80;21109;-86
2022/05/09 05:03:19;;;;;;;;;;;;;;;14.05;100.00;101314.70;1781166;80;21026;-87
2022/05/09 05:05:48;;;;;;;15.55;9.63;;;;;;;14.20;100.00;101309.56;1772606;80;20179;-87
2022/05/09 05:08:16;;;;;;;17.50;9.48;;;;;;;14.34;100.00;101311.05;1765741;80;21034;-89
2022/05/09 05:10:44;;;;;;;18.80;9.18;;;;;;;14.47;100.00;101295.18;1742337;81;21536;-90
2022/05/09 05:13:15;;;;;;;16.50;8.85;;;;;;;14.58;100.00;101303.47;1742436;80;21222;-91
2022/05/09 05:15:42;;;;;;;17.65;8.68;;;;;;;14.65;93.84;101309.06;1742224;80;21132;-90
2022/05/09 05:18:09;;;;;;;13.35;8.35;;;;;;;14.71;93.53;101303.83;1742168;81;20999;-88
2022/05/09 05:20:38;;;;;;;13.35;7.03;;;;;;;14.81;95.55;101307.38;1742038;80;20995;-86
2022/05/09 05:23:05;;;;;;;17.77;7.72;;;;;;;14.93;95.38;101293.23;1742440;81;21066;-86
2022/05/09 05:25:32;;;;;;;14.35;8.00;;;;;;;15.04;86.10;101294.96;1742154;81;21927;-86
2022/05/09 05:27:59;;;;;;;10.65;7.05;;;;;;;15.17;92.06;101292.64;1742372;80;20991;-85
2022/05/09 05:30:26;;;;;;;11.05;7.22;;;;;;;15.28;92.64;101289.92;1742116;81;21125;-86
2022/05/09 05:32:55;;;;;;;10.98;7.30;;;;;;;15.81;100.00;101285.47;1746633;80;21109;-87
2022/05/09 05:35:25;;;;;;;10.82;7.20;;;;;;;16.00;100.00;101289.98;1781190;80;21227;-88
2022/05/09 05:37:52;;;;;;;11.25;7.17;;;;;;;16.04;100.00;101285.63;1781425;80;22192;-86
2022/05/09 05:40:19;;;;;;;11.73;6.40;;;;;;;16.09;100.00;101287.36;1781449;80;20994;-85
2022/05/09 05:42:48;;;;;;;15.23;7.35;;;;;;;16.15;91.31;101278.58;1781358;80;21042;-85
2022/05/09 05:45:19;;;;;;;10.72;6.03;;;;;;;16.17;96.58;101275.34;1781475;80;21315;-86
2022/05/09 05:47:47;;;;;;;11.70;6.55;;;;;;;16.23;90.35;101276.11;1781641;80;21520;-86
2022/05/09 05:50:17;;;;;;;16.57;6.78;;;;;;;16.28;88.26;101268.66;1781667;80;21058;-87
2022/05/09 05:52:44;;;;;;;13.05;6.22;;;;;;;16.38;89.81;101266.03;1781554;80;21045;-91
2022/05/09 05:55:12;;;;;;;10.25;6.40;;;;;;;16.48;85.10;101267.34;1780900;80;21038;-90
2022/05/09 05:57:41;;;;;;;10.93;6.28;;;;;;;16.61;85.74;101269.70;1781094;80;21082;-86
2022/05/09 06:00:19;;;;;;;7.90;5.95;;;;;;;16.74;87.50;101262.84;1781482;80;21531;-87
2022/05/09 06:02:47;;;;;;;9.30;6.42;;;;;;;16.90;85.73;101264.91;1781714;80;21985;-85
2022/05/09 06:05:18;;;;;;;9.95;5.83;;;;;;;17.04;81.67;101261.86;1781798;80;21074;-87
2022/05/09 06:07:47;;;;;;;9.63;6.20;;;;;;;17.14;74.29;101260.52;1722741;81;21067;-86
2022/05/09 06:10:16;;;;;;;13.10;6.28;;;;;;;17.23;72.40;101260.13;1744832;81;22329;-87
2022/05/09 06:12:43;;;;;;;12.47;5.85;;;;;;;17.28;74.08;101255.28;1744694;81;21098;-87
2022/05/09 06:15:36;;;;;;;8.78;5.95;;;;;;;17.37;74.27;101265.42;1744699;81;21238;-86
2022/05/09 06:18:02;;;;;;;7.90;5.50;;;;;;;17.47;73.40;101262.28;1720453;81;21031;-86
2022/05/09 06:20:34;;;;;;;9.95;5.87;;;;;;;17.58;67.42;101265.20;1745138;81;21079;-86
2022/05/09 06:23:03;;;;;;;8.53;5.12;;;;;;;17.66;71.44;101260.04;1747281;80;22665;-85
2022/05/09 06:25:34;;;;;;;8.20;5.83;;;;;;;17.79;75.02;101261.02;1759291;80;21047;-86
2022/05/09 06:28:04;;;;;;;8.73;5.87;;;;;;;17.91;70.46;101259.82;1755646;80;21244;-86
2022/05/09 06:30:32;;;;;;;9.00;5.50;;;;;;;17.99;66.78;101260.95;1755411;80;21396;-88
2022/05/09 06:32:59;;;;;;;6.80;5.10;;;;;;;18.02;66.59;101258.84;1755469;80;21083;-90
2022/05/09 06:35:27;;;;;;;10.38;5.35;;;;;;;18.08;71.16;101258.24;1755559;80;21086;-91
2022/05/09 06:38:02;;;;;;;6.47;4.72;;;;;;;18.21;67.74;101251.76;1755535;80;21855;-84
2022/05/09 06:40:32;;;;;;;8.20;4.95;;;;;;;18.35;69.51;101254.37;1756085;80;21577;-85
2022/05/09 06:42:59;;;;;;;11.28;4.72;;;;;;;18.47;69.14;101247.05;1754644;80;21045;-86
2022/05/09 06:45:30;;;;;;;16.25;7.42;;;;;;;18.64;69.24;101253.28;1750442;80;25959;-85
2022/05/09 06:47:58;;;;;;;7.55;5.22;;;;;;;18.80;63.97;101242.84;1750457;80;21574;-88
2022/05/09 06:50:30;;;;;;;7.87;5.17;;;;;;;18.88;61.79;101249.50;1750798;80;21004;-86
2022/05/09 06:52:59;;;;;;;11.40;5.97;;;;;;;18.95;61.35;101246.30;1750309;80;22039;-86
2022/05/09 06:55:26;;;;;;;14.10;7.35;;;;;;;19.01;61.64;101249.63;1750118;82;21054;-86
2022/05/09 06:57:53;;;;;;;10.65;5.65;;;;;;;19.08;63.32;101238.78;1750225;80;21102;-87
2022/05/09 07:00:23;;;;;;;9.20;5.00;;;;;;;19.19;62.65;101238.50;1750434;80;21015;-85
2022/05/09 07:02:51;;;;;;;10.25;6.15;;;;;;;19.30;61.71;101236.09;1714828;82;21571;-85
2022/05/09 07:05:21;;;;;;;7.60;5.45;;;;;;;19.47;60.36;101240.95;1730582;81;21148;-85
2022/05/09 07:07:49;;;;;;;10.70;5.90;;;;;;;19.57;62.84;101241.32;1720979;83;21010;-85
2022/05/09 07:10:19;;;;;;;10.80;5.03;;;;;;;19.68;59.05;101237.89;1721027;82;21116;-83
2022/05/09 07:12:53;;;;;;;8.70;4.75;;;;;;;19.76;59.31;101237.08;1721292;82;21037;-84
2022/05/09 07:15:28;;;;;;;12.60;5.30;;;;;;;19.86;57.63;101231.70;1750910;80;21124;-87
2022/05/09 07:17:59;;;;;;;7.60;5.17;;;;;;;19.94;58.10;101237.48;1731103;81;21117;-88
2022/05/09 07:20:45;;;;;;;7.85;5.15;;;;;;;20.00;60.23;101235.03;1751085;80;20952;-83
2022/05/09 07:23:14;;;;;;;9.23;5.37;;;;;;;20.12;61.42;101232.90;1751179;80;20969;-83
2022/05/09 07:25:42;;;;;;;6.95;5.20;;;;;;;20.33;59.51;101223.17;1751047;80;21052;-83
2022/05/09 07:28:12;;;;;;;6.83;4.78;;;;;;;20.54;61.70;101215.73;1751473;80;21072;-84
2022/05/09 07:30:39;;;;;;;6.95;4.90;;;;;;;20.77;60.81;101222.02;1751312;80;21303;-84
2022/05/09 07:33:10;;;;;;;7.80;5.12;;;;;;;20.98;60.30;101214.02;1749420;80;21066;-85
2022/05/09 07:35:45;;;;;;;9.68;4.92;;;;;;;21.08;56.12;101210.69;1751428;80;21089;-89
2022/05/09 07:38:46;;;;;;;7.15;4.80;;;;;;;21.11;53.98;101210.84;1697847;82;21558;-85
2022/05/09 07:41:19;;;;;;;7.28;4.95;;;;;;;21.10;57.30;101211.34;1745134;80;21180;-87
2022/05/09 07:43:46;;;;;;;9.03;4.80;;;;;;;21.07;55.51;101208.22;1762530;80;21129;-85
2022/05/09 07:46:14;;;;;;;8.10;4.50;;;;;;;20.94;53.38;101210.88;1762563;80;21059;-85
2022/05/09 07:49:16;;;;;;;7.60;4.87;;;;;;;20.77;54.88;101210.59;1774606;80;21081;-86
2022/05/09 07:52:20;;;;;;;8.98;5.10;;;;;;;20.78;52.65;101213.08;1781083;80;21681;-85
2022/05/09 07:54:51;;;;;;;9.65;4.58;;;;;;;20.92;50.57;101209.41;1751663;81;21566;-83
2022/05/09 07:58:01;;;;;;;8.15;5.25;;;;;;;21.10;54.40;101202.56;1751606;81;21210;-84
2022/05/09 08:04:07;;;;;;;9.28;5.60;;;;;;;21.45;55.75;101208.39;1760288;80;21013;-85
2022/05/09 08:06:35;;;;;;;11.18;5.15;;;;;;;21.67;52.05;101216.07;1782441;80;20998;-85
2022/05/09 08:09:06;;;;;;;5.37;4.70;;;;;;;21.78;49.80;101210.90;1782287;80;21030;-85
2022/05/09 08:11:35;;;;;;;6.97;4.95;;;;;;;21.82;51.73;101206.08;1782193;80;21753;-84
2022/05/09 08:14:02;;;;;;;8.20;5.20;;;;;;;21.79;49.34;101207.73;1782131;80;21557;-85
2022/05/09 08:16:30;;;;;;;4.90;4.42;;;;;;;21.70;49.15;101210.44;1782263;80;20997;-84
2022/05/09 08:18:58;;;;;;;7.30;4.55;;;;;;;21.64;50.34;101211.14;1782527;80;21052;-84
2022/05/09 08:21:27;;;;;;;9.80;5.40;;;;;;;21.71;54.37;101209.44;1782124;80;21147;-85
2022/05/09 08:23:56;;;;;;;7.15;4.35;;;;;;;21.87;53.76;101198.41;1766166;80;21202;-85
2022/05/09 08:26:24;;;;;;;7.90;4.80;;;;;;;22.05;53.84;101204.25;1756459;80;21023;-89
2022/05/09 08:28:53;;;;;;;5.42;4.78;;;;;;;22.24;53.87;101207.41;1756686;80;21061;-85
2022/05/09 08:31:27;;;;;;;10.38;5.12;;;;;;;22.41;55.23;101197.53;1756633;81;21045;-84
2022/05/09 08:33:57;;;;;;;5.72;5.08;;;;;;;22.55;53.51;101191.09;1756193;80;21069;-84
2022/05/09 08:39:09;;;;;;;8.18;5.35;;;;;;;22.37;54.75;101186.91;1779008;80;21108;-85
2022/05/09 08:42:04;;;;;;;6.20;5.17;;;;;;;22.50;54.77;101187.66;1782748;80;21135;-83
2022/05/09 08:45:00;;;;;;;8.58;6.00;;;;;;;22.74;53.94;101180.45;1776325;80;21626;-83
2022/05/09 08:47:51;;;;;;;6.87;5.65;;;;;;;22.86;50.23;101169.71;1747948;80;21081;-83
2022/05/09 08:51:06;;;;;;;10.57;5.20;;;;;;;22.85;49.47;101172.05;1746466;82;21331;-84
2022/05/09 08:53:39;;;;;;;7.37;5.22;;;;;;;22.81;52.41;101184.02;1744281;80;20991;-85
2022/05/09 08:56:17;;;;;;;8.93;5.65;;;;;;;22.43;50.46;101182.27;1770888;80;21089;-83
2022/05/09 08:59:02;;;;;;;11.65;5.60;;;;;;;22.27;51.73;101185.84;1776063;80;21113;-83
2022/05/09 09:01:38;;;;;;;9.10;5.80;;;;;;;22.01;53.86;101189.69;1769001;80;21158;-83
2022/05/09 09:04:13;;;;;;;11.78;5.58;;;;;;;21.85;56.19;101192.45;1745707;82;21115;-83
2022/05/09 09:06:58;;;;;;;10.10;5.90;;;;;;;21.92;55.09;101193.39;1740867;82;21060;-83
2022/05/09 09:09:38;;;;;;;6.85;6.08;;;;;;;21.98;54.32;101195.36;1738436;82;21573;-84
2022/05/09 09:12:59;;;;;;;8.03;6.20;;;;;;;21.88;53.07;101190.27;1732786;82;21078;-83
2022/05/09 09:15:59;;;;;;;;;;;;;;;21.57;55.38;101206.18;1745542;81;21020;-83
2022/05/09 09:18:44;;;;;;;8.70;6.28;;;;;;;21.47;56.70;101205.56;1758785;80;21074;-83
2022/05/09 09:21:22;;;;;;;8.93;6.60;;;;;;;21.60;58.55;101203.20;1744309;80;21094;-83
2022/05/09 09:24:49;;;;;;;12.07;6.55;;;;;;;21.69;60.41;101208.78;1738391;81;21055;-83
2022/05/09 09:27:37;;;;;;;7.50;6.12;;;;;;;21.84;59.47;101212.84;1779096;80;21101;-89
2022/05/09 09:30:15;;;;;;;9.08;6.20;;;;;;;21.98;55.93;101207.77;1764525;80;21054;-83
2022/05/09 09:32:57;;;;;;;9.48;6.72;;;;;;;22.04;57.67;101207.06;1757522;81;21689;-83
2022/05/09 09:35:44;;;;;;;9.93;5.72;;;;;;;22.14;55.75;101208.17;1768757;80;21054;-82
2022/05/09 09:38:54;;;;;;;7.50;6.25;;;;;;;22.19;56.24;101201.82;1717280;82;21618;-83
2022/05/09 09:41:32;;;;;;;8.08;5.92;;;;;;;22.14;54.29;101208.98;1702406;83;21839;-83
2022/05/09 09:44:22;;;;;;;6.67;5.97;;;;;;;21.95;56.25;101221.41;1736539;81;21149;-83
2022/05/09 09:47:22;;;;;;;6.47;5.87;;;;;;;21.75;56.77;101219.19;1715646;82;21321;-83
2022/05/09 09:50:15;;;;;;;7.58;5.00;;;;;;;21.52;59.20;101196.58;1727264;82;21538;-82
2022/05/09 09:52:47;;;;;;;6.85;5.12;;;;;;;21.41;58.36;101221.16;1733936;81;21060;-82
2022/05/09 09:55:32;;;;;;;6.62;5.28;;;;;;;21.23;65.00;101209.97;1720881;82;21601;-84
2022/05/09 09:58:20;;;;;;;7.47;5.35;;;;;;;21.20;64.27;101204.52;1751356;81;21101;-85
2022/05/09 10:01:07;;;;;;;7.28;5.10;;;;;;;21.29;80.38;101219.87;1763839;80;21144;-82
2022/05/09 10:03:38;;;;;;;7.65;4.85;;;;;;;21.36;68.94;101220.02;1761843;80;21076;-82
2022/05/09 10:06:20;;;;;;;6.25;4.47;;;;;;;21.16;73.70;101234.97;1740813;82;25134;-82
2022/05/09 10:09:09;;;;;;;4.50;4.08;;;;;;;20.92;77.23;101226.61;1732911;82;21502;-82
2022/05/09 10:11:38;;;;;;;10.10;3.87;;;;;;;20.86;76.07;101236.05;1738809;82;21608;-82
2022/05/09 10:14:07;;;;;;;6.08;3.80;;;;;;;20.95;83.84;101241.66;1745864;82;21162;-83
2022/05/09 10:16:41;;;;;;;4.45;3.60;;;;;;;20.94;73.51;101241.83;1739258;82;21020;-82
2022/05/09 10:19:13;;;;;;;4.60;4.17;;;;;;;20.77;84.08;101245.83;1760362;81;21646;-83
2022/05/09 10:24:49;;;;;;;5.15;4.47;;;;;;;20.53;89.10;101251.91;1741315;80;21145;-83
2022/05/09 10:27:30;;;;;;;5.22;4.47;;;;;;;20.39;100.00;101263.97;1707796;83;21579;-82
2022/05/09 10:30:04;;;;;;;4.97;4.55;;;;;;;20.31;100.00;101261.35;1727618;81;21058;-84
2022/05/09 10:32:52;;;;;;;7.45;5.78;;;;;;;20.21;100.00;101258.03;1742126;80;21092;-85
2022/05/09 10:35:28;;;;;;;6.12;5.08;;;;;;;20.32;100.00;101265.15;1744533;82;21013;-84
2022/05/09 10:38:30;;;;;;;8.25;5.20;;;;;;;20.45;100.00;101261.17;1743043;82;21115;-82
2022/05/09 10:41:04;;;;;;;7.45;5.42;;;;;;;20.22;100.00;101267.62;1709497;81;21217;-82
2022/05/09 10:43:42;;;;;;;7.97;5.12;;;;;;;19.83;100.00;101255.26;1764181;80;21014;-82
2022/05/09 10:46:13;;;;;;;5.90;5.30;;;;;;;19.47;100.00;101250.20;1768702;80;21109;-81
2022/05/09 10:48:52;;;;;;;9.15;5.60;;;;;;;19.17;100.00;101248.41;1749007;80;21531;-82
2022/05/09 10:51:32;;;;;;;8.43;5.30;;;;;;;18.95;100.00;101249.75;1737249;80;22299;-82
2022/05/09 10:54:24;;;;;;;6.80;5.10;;;;;;;18.73;100.00;101236.06;1755299;81;21840;-82
2022/05/09 10:57:03;;;;;;;6.03;5.42;;;;;;;18.60;100.00;101240.89;1743043;80;21040;-81
2022/05/09 10:59:35;;;;;;;7.25;5.50;;;;;;;18.52;100.00;101257.49;1754427;80;21082;-83
2022/05/09 11:02:13;;;;;;;6.58;5.65;;;;;;;18.52;100.00;101254.01;1763054;80;21090;-82
2022/05/09 11:04:42;;;;;;;7.12;5.78;;;;;;;18.56;100.00;101256.19;1740430;82;21589;-81
2022/05/09 11:07:24;;;;;;;6.20;5.60;;;;;;;18.53;100.00;101269.70;1766642;80;21777;-83
2022/05/09 11:10:05;;;;;;;6.87;5.40;;;;;;;18.45;100.00;101263.84;1766270;80;20995;-84
2022/05/09 11:13:07;;;;;;;6.37;5.17;;;;;;;18.44;100.00;101260.87;1761181;80;21114;-81
2022/05/09 11:15:49;;;;;;;7.47;4.95;;;;;;;18.43;100.00;101249.16;1764662;80;21010;-82
2022/05/09 11:19:05;;;;;;;6.53;4.50;;;;;;;18.49;100.00;101253.83;1768057;80;21010;-82
2022/05/09 11:21:47;;;;;;;5.37;4.15;;;;;;;18.59;100.00;101275.67;1754591;80;22409;-82
2022/05/09 11:24:37;;;;;;;4.10;3.80;;;;;;;18.71;100.00;101250.36;1760133;80;21042;-84
2022/05/09 11:27:20;;;;;;;4.35;3.67;;;;;;;18.72;100.00;101252.02;1766180;80;21023;-83
2022/05/09 11:30:21;;;;;;;9.13;3.98;;;;;;;18.67;100.00;101261.71;1763841;80;21612;-88
2022/05/09 11:33:12;;;;;;;5.35;3.90;;;;;;;18.52;100.00;101260.13;1742451;82;21101;-86
2022/05/09 11:35:40;;;;;;;4.35;3.72;;;;;;;18.30;100.00;101265.36;1738318;82;21158;-85
2022/05/09 11:38:49;;;;;;;3.90;3.20;;;;;;;18.19;100.00;101273.00;1729394;82;21071;-84
2022/05/09 11:41:40;;;;;;;7.10;2.60;;;;;;;18.16;100.00;101262.75;1751410;80;21045;-84
2022/05/09 11:44:18;;;;;;;3.85;2.42;;;;;;;18.15;100.00;101280.04;1771366;80;21049;-88
2022/05/09 11:47:06;;;;;;;2.85;2.50;;;;;;;18.12;100.00;101285.94;1729357;80;21030;-85
2022/05/09 11:50:22;;;;;;;2.70;2.50;;;;;;;18.32;100.00;101266.05;1695030;82;21109;-83
2022/05/09 11:52:52;;;;;;;3.02;2.70;;;;;;;18.75;100.00;101259.14;1709988;83;21080;-82
2022/05/09 11:55:25;;;;;;;5.83;3.42;;;;;;;19.25;100.00;101267.91;1702779;82;21021;-82
2022/05/09 11:57:58;;;;;;;3.65;3.33;;;;;;;19.44;100.00;101258.42;1721382;82;21037;-82
2022/05/09 12:00:44;;;;;;;3.77;3.47;;;;;;;19.49;100.00;101264.08;1719184;82;20998;-83
2022/05/09 12:03:13;;;;;;;5.22;2.87;;;;;;;19.46;100.00;101262.24;1724625;82;21086;-83
2022/05/09 12:06:00;;;;;;;3.33;3.02;;;;;;;19.33;100.00;101278.02;1715559;81;21131;-81
2022/05/09 12:08:45;;;;;;;4.70;3.58;;;;;;;19.10;100.00;101278.20;1712095;82;21032;-85